Time;durP1;ratioP1;P1;durP2;ratioP2;P2;SDS_P1;SDS_P2;PMS_P1;PMS_P2;Temp;Humidity;BMP_temperature;BMP_pressure;BME280_temperature;BME280_humidity;BME280_pressure;Samples;Min_cycle;Max_cycle;Signal;HPM_P1;HPM_P2
2022/11/04 00:01:42;;;;;;;6.00;4.57;;;11.80;99.90;;;;;;4954856;28;20043;-67
2022/11/04 00:04:10;;;;;;;5.18;4.10;;;11.80;99.90;;;;;;4956566;28;20051;-67
2022/11/04 00:06:37;;;;;;;5.07;3.20;;;11.70;99.90;;;;;;4942049;28;20043;-67
2022/11/04 00:09:05;;;;;;;3.10;2.20;;;11.70;99.90;;;;;;4952111;29;20407;-67
2022/11/04 00:14:15;;;;;;;3.17;1.60;;;11.50;99.90;;;;;;4951882;28;20098;-66
2022/11/04 00:19:26;;;;;;;3.00;1.50;;;11.50;99.90;;;;;;4956323;29;20057;-67
2022/11/04 00:29:56;;;;;;;3.17;1.00;;;11.40;99.90;;;;;;4943596;28;20106;-67
2022/11/04 00:35:07;;;;;;;2.60;0.80;;;11.40;99.90;;;;;;4955675;29;20066;-67
2022/11/04 00:37:40;;;;;;;0.85;0.85;;;11.40;99.90;;;;;;4952951;28;20067;-67
2022/11/04 00:40:08;;;;;;;1.55;1.00;;;11.40;99.90;;;;;;4949497;29;20039;-67
2022/11/04 00:42:33;;;;;;;0.80;0.80;;;11.40;99.90;;;;;;4947353;29;20039;-67
2022/11/04 00:44:59;;;;;;;0.98;0.80;;;11.40;99.90;;;;;;4955734;28;20039;-67
2022/11/04 00:47:25;;;;;;;1.30;0.90;;;11.30;99.90;;;;;;4948961;28;20039;-67
2022/11/04 00:49:50;;;;;;;2.00;0.90;;;11.30;99.90;;;;;;4955289;29;20035;-67
2022/11/04 00:52:16;;;;;;;1.45;0.95;;;11.20;99.90;;;;;;4955085;28;20521;-67
2022/11/04 00:54:42;;;;;;;2.45;1.00;;;11.20;99.90;;;;;;4951392;28;20383;-67
2022/11/04 00:57:09;;;;;;;0.93;0.82;;;11.20;99.90;;;;;;4948482;29;20391;-67
2022/11/04 00:59:35;;;;;;;1.90;1.00;;;11.10;99.90;;;;;;4955050;29;20058;-67
2022/11/04 01:02:00;;;;;;;1.52;1.00;;;11.20;99.90;;;;;;4948106;28;20065;-67
2022/11/04 01:04:26;;;;;;;2.25;0.90;;;11.20;99.90;;;;;;4952810;28;20761;-67
2022/11/04 01:06:52;;;;;;;1.58;1.05;;;11.20;99.90;;;;;;4953893;29;20490;-67
2022/11/04 01:09:18;;;;;;;2.20;0.90;;;11.20;99.90;;;;;;4955203;28;20046;-67
2022/11/04 01:11:44;;;;;;;3.10;1.20;;;11.20;99.90;;;;;;4947539;28;20159;-67
2022/11/04 01:14:10;;;;;;;4.47;1.20;;;11.10;99.90;;;;;;4938242;29;20510;-67
2022/11/04 01:16:36;;;;;;;1.15;0.80;;;11.10;99.90;;;;;;4954977;29;20031;-67
2022/11/04 01:19:02;;;;;;;1.80;0.73;;;11.10;99.90;;;;;;4950211;28;20991;-67
2022/11/04 01:21:27;;;;;;;1.65;1.00;;;11.10;99.90;;;;;;4943331;28;20426;-67
2022/11/04 01:23:53;;;;;;;1.77;0.90;;;11.10;99.90;;;;;;4954793;28;20035;-67
2022/11/04 01:26:22;;;;;;;1.52;0.90;;;11.00;99.90;;;;;;4954920;28;20149;-67
2022/11/04 01:28:49;;;;;;;2.00;1.17;;;11.00;99.90;;;;;;4939817;28;20513;-67
2022/11/04 01:31:19;;;;;;;2.92;1.05;;;10.90;99.90;;;;;;4982755;28;20502;-67
2022/11/04 01:33:45;;;;;;;1.88;1.10;;;10.90;99.90;;;;;;4954952;28;20031;-67
2022/11/04 01:36:11;;;;;;;2.88;1.00;;;10.90;99.90;;;;;;4946373;28;20044;-67
2022/11/04 01:38:37;;;;;;;1.88;1.20;;;10.90;99.90;;;;;;4947741;28;20035;-67
2022/11/04 01:41:03;;;;;;;3.50;1.42;;;10.90;99.90;;;;;;4954289;28;20039;-67
2022/11/04 01:43:55;;;;;;;3.80;1.65;;;10.90;99.90;;;;;;4954689;28;20054;-67
2022/11/04 01:46:45;;;;;;;3.05;1.80;;;10.90;99.90;;;;;;4941604;28;20054;-67
2022/11/04 01:49:25;;;;;;;2.08;1.67;;;10.90;99.90;;;;;;4953928;28;20039;-67
2022/11/04 01:51:55;;;;;;;3.90;2.00;;;10.90;99.90;;;;;;4953782;28;20047;-67
2022/11/04 01:54:21;;;;;;;3.95;2.08;;;10.90;99.90;;;;;;4949479;28;20040;-67
2022/11/04 01:56:48;;;;;;;4.38;2.42;;;10.90;99.90;;;;;;4952681;29;20035;-67
2022/11/04 01:59:23;;;;;;;3.88;2.50;;;10.90;99.90;;;;;;4954497;28;20512;-67
2022/11/04 02:01:48;;;;;;;7.90;2.55;;;11.00;99.90;;;;;;4950183;28;20313;-67
2022/11/04 02:04:26;;;;;;;5.70;3.08;;;11.00;99.90;;;;;;4942763;29;20122;-67
2022/11/04 02:07:01;;;;;;;6.47;3.38;;;11.00;99.90;;;;;;4954140;28;20514;-67
2022/11/04 02:09:29;;;;;;;6.13;3.25;;;11.10;99.90;;;;;;4948482;28;20095;-67
2022/11/04 02:14:40;;;;;;;7.28;3.80;;;11.10;99.90;;;;;;4946492;29;20109;-66
2022/11/04 02:17:16;;;;;;;7.75;4.38;;;11.10;99.90;;;;;;4954339;28;20054;-67
2022/11/04 02:19:53;;;;;;;7.90;5.20;;;11.20;99.90;;;;;;4943988;28;20036;-66
2022/11/04 02:22:28;;;;;;;8.13;5.50;;;11.20;99.90;;;;;;4947860;28;20051;-67
2022/11/04 02:25:14;;;;;;;6.70;5.35;;;11.20;99.90;;;;;;4953578;29;20047;-67
2022/11/04 02:27:51;;;;;;;8.15;5.20;;;11.20;99.90;;;;;;4942989;28;20043;-67
2022/11/04 02:30:19;;;;;;;7.82;4.85;;;11.20;99.90;;;;;;4951194;29;20469;-67
2022/11/04 02:32:54;;;;;;;9.57;5.78;;;11.20;99.90;;;;;;4953866;28;20046;-66
2022/11/04 02:35:32;;;;;;;11.63;5.90;;;11.20;99.90;;;;;;4949788;28;20461;-66
2022/11/04 02:38:13;;;;;;;12.38;6.28;;;11.20;99.90;;;;;;4951201;28;20031;-66
2022/11/04 02:40:56;;;;;;;9.55;6.15;;;11.20;99.90;;;;;;4934642;29;20406;-66
2022/11/04 02:43:32;;;;;;;11.07;6.68;;;11.20;99.90;;;;;;4935649;28;20516;-66
2022/11/04 02:46:25;;;;;;;12.50;7.00;;;11.20;99.90;;;;;;4945657;28;20686;-66
2022/11/04 02:49:01;;;;;;;13.38;7.10;;;11.20;99.90;;;;;;4948186;29;20043;-66
2022/11/04 02:52:00;;;;;;;11.25;6.47;;;11.20;99.90;;;;;;4949217;28;20074;-65
2022/11/04 02:54:38;;;;;;;11.52;6.20;;;11.20;99.90;;;;;;4945009;29;20051;-66
2022/11/04 02:57:06;;;;;;;9.95;6.35;;;11.10;99.90;;;;;;4953844;28;20121;-66
2022/11/04 02:59:48;;;;;;;10.70;6.05;;;11.10;99.90;;;;;;4937210;28;20043;-66
2022/11/04 03:02:21;;;;;;;;;;;11.00;99.90;;;;;;4948403;29;20035;-66
2022/11/04 03:04:50;;;;;;;9.50;4.80;;;11.00;99.90;;;;;;4953663;29;20010;-66
2022/11/04 03:07:23;;;;;;;7.90;4.90;;;11.00;99.90;;;;;;4953799;28;20502;-66
2022/11/04 03:09:53;;;;;;;7.63;5.03;;;10.90;99.90;;;;;;4941674;28;20036;-66
2022/11/04 03:12:26;;;;;;;8.82;4.47;;;10.90;99.90;;;;;;4945105;29;20075;-65
2022/11/04 03:14:58;;;;;;;6.80;3.88;;;10.90;99.90;;;;;;4953284;29;20386;-66
2022/11/04 03:18:08;;;;;;;5.85;3.70;;;10.90;99.90;;;;;;4942451;28;20040;-66
2022/11/04 03:20:37;;;;;;;6.03;3.35;;;10.90;99.90;;;;;;4944812;29;20149;-66
2022/11/04 03:23:03;;;;;;;4.63;3.03;;;10.90;99.90;;;;;;4953117;28;20094;-66
2022/11/04 03:25:36;;;;;;;5.60;3.38;;;10.90;99.90;;;;;;4944341;28;20192;-66
2022/11/04 03:28:30;;;;;;;5.22;3.63;;;10.80;99.90;;;;;;4949082;29;20035;-66
2022/11/04 03:31:00;;;;;;;5.70;3.28;;;10.80;99.90;;;;;;4933963;29;20039;-65
2022/11/04 03:33:35;;;;;;;5.22;3.47;;;10.80;99.90;;;;;;4939088;28;20067;-65
2022/11/04 03:36:02;;;;;;;5.45;3.40;;;10.80;99.90;;;;;;4943425;29;20051;-66
2022/11/04 03:38:28;;;;;;;3.88;2.53;;;10.80;99.90;;;;;;4956892;28;20086;-66
2022/11/04 03:40:53;;;;;;;2.78;1.83;;;10.70;99.90;;;;;;4956693;28;20070;-66
2022/11/04 03:43:26;;;;;;;2.67;2.00;;;10.70;99.90;;;;;;4942960;28;20043;-65
2022/11/04 03:45:53;;;;;;;4.03;1.77;;;10.70;99.90;;;;;;4955497;29;20118;-66
2022/11/04 03:48:18;;;;;;;3.25;1.50;;;10.70;99.90;;;;;;4956499;28;20046;-66
2022/11/04 03:50:47;;;;;;;2.83;1.60;;;10.60;99.90;;;;;;4943791;28;20027;-66
2022/11/04 03:53:16;;;;;;;1.90;1.40;;;10.60;99.90;;;;;;4953890;28;20038;-66
2022/11/04 03:55:59;;;;;;;2.60;1.20;;;10.50;99.90;;;;;;4956839;28;20040;-65
2022/11/04 03:58:41;;;;;;;2.35;1.10;;;10.40;99.90;;;;;;4956492;28;20042;-65
2022/11/04 04:01:18;;;;;;;2.83;1.10;;;10.40;99.90;;;;;;4949787;28;20444;-65
2022/11/04 04:04:16;;;;;;;3.70;0.90;;;10.30;99.90;;;;;;4949710;29;20035;-65
2022/11/04 04:06:42;;;;;;;1.55;0.88;;;10.30;99.90;;;;;;4946679;28;20043;-66
2022/11/04 04:09:24;;;;;;;0.90;0.70;;;10.30;99.90;;;;;;4978408;28;20401;-65
2022/11/04 04:12:05;;;;;;;2.13;0.70;;;10.20;99.90;;;;;;4955986;28;20040;-65
2022/11/04 04:14:43;;;;;;;1.35;0.82;;;10.20;99.90;;;;;;4956429;29;20039;-65
2022/11/04 04:17:17;;;;;;;2.47;0.90;;;10.20;99.90;;;;;;4944148;29;20043;-65
2022/11/04 04:19:47;;;;;;;1.92;0.93;;;10.20;99.90;;;;;;4949008;29;20101;-65
2022/11/04 04:22:24;;;;;;;2.72;0.85;;;10.20;99.90;;;;;;4952934;28;20035;-65
2022/11/04 04:27:38;;;;;;;1.80;1.02;;;10.20;99.90;;;;;;4948273;29;20071;-66
2022/11/04 04:30:12;;;;;;;2.72;0.88;;;10.20;99.90;;;;;;4954121;29;20553;-66
2022/11/04 04:32:43;;;;;;;1.20;1.00;;;10.20;99.90;;;;;;4948908;28;20090;-65
2022/11/04 04:44:58;;;;;;;5.55;1.40;;;10.20;99.90;;;;;;4949809;29;20102;-65
2022/11/04 04:46:17;;;;;;;3.72;1.50;;;10.20;99.90;;;;;;4954330;28;20070;-65
2022/11/04 04:48:42;;;;;;;2.75;1.40;;;10.20;99.90;;;;;;4943833;28;20478;-69
2022/11/04 04:51:08;;;;;;;3.35;1.55;;;10.20;99.90;;;;;;4951977;28;20478;-65
2022/11/04 04:53:34;;;;;;;3.15;1.58;;;10.20;99.90;;;;;;4936717;29;20102;-66
2022/11/04 04:55:59;;;;;;;3.35;1.60;;;10.20;99.90;;;;;;4934302;28;20411;-67
2022/11/04 04:58:25;;;;;;;7.07;1.50;;;10.20;99.90;;;;;;4943743;29;20055;-66
2022/11/04 05:00:51;;;;;;;5.72;1.88;;;10.20;99.90;;;;;;4954840;28;20031;-65
2022/11/04 05:03:16;;;;;;;3.85;1.73;;;10.20;99.90;;;;;;4955200;28;20043;-66
2022/11/04 05:05:42;;;;;;;4.43;2.72;;;10.20;99.90;;;;;;4944270;28;20058;-65
2022/11/04 05:08:08;;;;;;;4.10;1.58;;;10.20;99.90;;;;;;4953041;28;20074;-67
2022/11/04 05:10:33;;;;;;;3.60;1.90;;;10.20;99.90;;;;;;4955383;29;20050;-66
2022/11/04 05:15:44;;;;;;;1.95;1.40;;;10.20;99.90;;;;;;4940647;29;20045;-65
2022/11/04 05:18:10;;;;;;;2.65;1.40;;;10.20;99.90;;;;;;4954753;28;20039;-64
2022/11/04 05:20:37;;;;;;;4.43;1.50;;;10.20;99.90;;;;;;4955328;28;20486;-65
2022/11/04 05:23:03;;;;;;;3.00;1.38;;;10.10;99.90;;;;;;4948269;28;20050;-65
2022/11/04 05:25:29;;;;;;;2.60;1.10;;;10.10;99.90;;;;;;4954590;29;20130;-65
2022/11/04 05:27:58;;;;;;;1.90;1.25;;;10.10;99.90;;;;;;4951692;28;20047;-66
2022/11/04 05:30:24;;;;;;;2.13;1.10;;;10.10;99.90;;;;;;4941914;28;20054;-66
2022/11/04 05:32:50;;;;;;;2.00;1.02;;;10.00;99.90;;;;;;4952035;28;20494;-66
2022/11/04 05:35:15;;;;;;;3.10;1.10;;;10.00;99.90;;;;;;4954633;29;20043;-65
2022/11/04 05:37:41;;;;;;;2.58;1.13;;;9.90;99.90;;;;;;4955064;28;20039;-65
2022/11/04 05:40:07;;;;;;;1.33;1.08;;;9.90;99.90;;;;;;4950830;28;20497;-66
2022/11/04 05:42:33;;;;;;;2.40;1.33;;;9.80;99.90;;;;;;4950859;29;20545;-66
2022/11/04 05:44:58;;;;;;;2.13;1.50;;;9.70;99.90;;;;;;4954306;29;20118;-65
2022/11/04 05:47:24;;;;;;;5.50;1.90;;;9.70;99.90;;;;;;4945164;28;20039;-65
2022/11/04 05:49:49;;;;;;;4.13;2.00;;;9.60;99.90;;;;;;4936739;28;20106;-66
2022/11/04 05:52:15;;;;;;;4.07;1.92;;;9.60;99.90;;;;;;4951236;28;20477;-66
2022/11/04 05:54:40;;;;;;;4.38;2.20;;;9.40;99.90;;;;;;4954180;29;20066;-65
2022/11/04 05:57:06;;;;;;;6.03;2.22;;;9.40;99.90;;;;;;4949792;28;21529;-65
2022/11/04 05:59:32;;;;;;;2.58;1.70;;;9.40;99.90;;;;;;4977680;28;20126;-65
2022/11/04 06:01:57;;;;;;;5.60;2.03;;;9.30;99.90;;;;;;4950249;28;20111;-66
2022/11/04 06:04:23;;;;;;;3.72;1.70;;;9.20;99.90;;;;;;4950356;28;20039;-65
2022/11/04 06:06:48;;;;;;;3.63;1.80;;;9.20;99.90;;;;;;4953942;29;20470;-65
2022/11/04 06:09:14;;;;;;;5.75;1.73;;;9.10;99.90;;;;;;4954015;29;20090;-66
2022/11/04 06:11:39;;;;;;;3.63;1.67;;;9.10;99.90;;;;;;4941546;28;20050;-65
2022/11/04 06:14:05;;;;;;;3.67;1.70;;;9.10;99.90;;;;;;4952256;28;20035;-66
2022/11/04 06:16:31;;;;;;;3.08;1.90;;;9.10;99.90;;;;;;4953203;29;20050;-66
2022/11/04 06:18:56;;;;;;;3.40;2.10;;;9.10;99.90;;;;;;4947821;28;20490;-67
2022/11/04 06:21:28;;;;;;;3.33;2.10;;;9.10;99.90;;;;;;4947064;29;20130;-66
2022/11/04 06:23:56;;;;;;;4.05;2.17;;;9.00;99.90;;;;;;4953633;28;20098;-65
2022/11/04 06:26:23;;;;;;;3.30;2.20;;;9.00;99.90;;;;;;4953677;28;20043;-64
2022/11/04 06:28:49;;;;;;;3.75;2.10;;;8.90;99.90;;;;;;4936030;28;20043;-65
2022/11/04 06:31:15;;;;;;;5.25;2.10;;;8.90;99.90;;;;;;4950078;28;20027;-65
2022/11/04 06:33:41;;;;;;;3.78;2.00;;;8.90;99.90;;;;;;4953542;29;20463;-65
2022/11/04 06:36:10;;;;;;;2.88;1.80;;;8.90;99.90;;;;;;4945388;28;20059;-65
2022/11/04 06:38:39;;;;;;;3.70;1.80;;;8.90;99.90;;;;;;4947842;29;20039;-65
2022/11/04 06:41:13;;;;;;;4.60;1.80;;;9.00;99.90;;;;;;4952782;28;20035;-66
2022/11/04 06:43:38;;;;;;;2.95;1.77;;;9.00;99.90;;;;;;4952416;28;20126;-66
2022/11/04 06:46:04;;;;;;;3.75;1.92;;;9.10;99.90;;;;;;4943214;28;20110;-66
2022/11/04 06:48:30;;;;;;;4.80;1.88;;;9.10;99.90;;;;;;4948749;29;20395;-66
2022/11/04 06:50:58;;;;;;;3.05;1.42;;;9.10;99.90;;;;;;4950604;28;20086;-66
2022/11/04 06:53:23;;;;;;;3.05;1.50;;;9.20;99.90;;;;;;4932618;28;20050;-66
2022/11/04 06:55:51;;;;;;;3.70;1.77;;;9.20;99.90;;;;;;4936648;29;20285;-67
2022/11/04 06:58:17;;;;;;;6.07;1.77;;;9.20;99.90;;;;;;4950304;28;20039;-67
2022/11/04 07:00:42;;;;;;;4.90;1.80;;;9.20;99.90;;;;;;4950544;28;20118;-67
2022/11/04 07:03:09;;;;;;;4.05;2.00;;;9.20;99.90;;;;;;4933997;28;20036;-67
2022/11/04 07:05:34;;;;;;;3.28;1.88;;;9.20;99.90;;;;;;4942563;29;20075;-67
2022/11/04 07:08:00;;;;;;;4.75;1.98;;;9.20;99.90;;;;;;4950531;28;20098;-70
2022/11/04 07:10:26;;;;;;;5.07;2.13;;;9.20;99.90;;;;;;4948184;28;20071;-67
2022/11/04 07:12:53;;;;;;;8.73;3.92;;;9.20;99.90;;;;;;4954090;28;20474;-69
2022/11/04 07:15:19;;;;;;;6.20;3.13;;;9.30;99.90;;;;;;4957482;29;20031;-67
2022/11/04 07:17:44;;;;;;;5.25;3.03;;;9.30;99.90;;;;;;4952097;28;20569;-67
2022/11/04 07:20:12;;;;;;;8.98;3.45;;;9.30;99.90;;;;;;4944113;29;20046;-67
2022/11/04 07:22:38;;;;;;;6.05;3.50;;;9.40;99.90;;;;;;4956615;28;20067;-66
2022/11/04 07:25:04;;;;;;;8.25;4.00;;;9.40;99.90;;;;;;4951744;28;20530;-67
2022/11/04 07:27:30;;;;;;;7.88;4.18;;;9.30;99.90;;;;;;4951509;28;20118;-67
2022/11/04 07:29:55;;;;;;;10.00;4.63;;;9.30;99.90;;;;;;4956283;28;20106;-67
2022/11/04 07:32:21;;;;;;;8.10;4.38;;;9.30;99.90;;;;;;4956663;28;20634;-68
2022/11/04 07:34:46;;;;;;;12.85;5.85;;;9.30;99.90;;;;;;4957020;28;20039;-67
2022/11/04 07:37:12;;;;;;;10.63;5.68;;;9.30;99.90;;;;;;4947268;28;20032;-67
2022/11/04 07:39:38;;;;;;;13.77;5.70;;;9.30;99.90;;;;;;4955968;28;20039;-66
2022/11/04 07:42:06;;;;;;;11.18;6.47;;;9.40;99.90;;;;;;4939860;28;20057;-68
2022/11/04 07:44:32;;;;;;;12.70;6.75;;;9.50;99.90;;;;;;4954472;28;20082;-67
2022/11/04 07:46:58;;;;;;;14.48;7.60;;;9.50;99.90;;;;;;4955775;29;20378;-68
2022/11/04 07:49:24;;;;;;;14.43;7.80;;;9.60;99.90;;;;;;4956386;29;20036;-68
2022/11/04 07:51:50;;;;;;;16.10;8.90;;;9.70;99.90;;;;;;4954476;28;20051;-68
2022/11/04 07:54:16;;;;;;;20.30;9.45;;;9.80;99.90;;;;;;4943318;28;20050;-68
2022/11/04 07:56:41;;;;;;;22.60;10.25;;;9.80;99.90;;;;;;4954389;29;20035;-68
2022/11/04 07:59:07;;;;;;;20.98;10.32;;;9.90;99.90;;;;;;4951844;28;20618;-68
2022/11/04 08:01:33;;;;;;;18.73;9.70;;;10.00;99.90;;;;;;4946214;29;20098;-67
2022/11/04 08:03:59;;;;;;;18.83;10.80;;;10.10;99.90;;;;;;4955942;28;20036;-68
2022/11/04 08:06:24;;;;;;;25.25;12.35;;;10.10;99.90;;;;;;4956361;28;20047;-68
2022/11/04 08:08:52;;;;;;;27.58;12.20;;;10.20;99.90;;;;;;4941131;28;20061;-68
2022/11/04 08:11:20;;;;;;;21.85;11.43;;;10.20;99.90;;;;;;4953349;28;20114;-67
2022/11/04 08:13:46;;;;;;;24.27;11.50;;;10.20;99.90;;;;;;4954693;29;20050;-68
2022/11/04 08:16:14;;;;;;;25.08;13.40;;;10.20;99.90;;;;;;4944335;28;20032;-67
2022/11/04 08:18:41;;;;;;;22.30;11.82;;;10.20;99.90;;;;;;4951321;29;20061;-68
2022/11/04 08:21:08;;;;;;;26.65;12.65;;;10.20;99.90;;;;;;4954143;28;20059;-67
2022/11/04 08:23:33;;;;;;;20.40;11.90;;;10.10;99.90;;;;;;4954927;29;20098;-68
2022/11/04 08:25:59;;;;;;;23.08;12.07;;;10.10;99.90;;;;;;4949619;28;20039;-67
2022/11/04 08:28:25;;;;;;;23.45;13.00;;;10.00;99.90;;;;;;4943903;28;20047;-68
2022/11/04 08:31:03;;;;;;;24.42;13.50;;;10.00;99.90;;;;;;4954305;28;20043;-68
2022/11/04 08:33:31;;;;;;;28.55;14.48;;;10.00;99.90;;;;;;4951798;28;20122;-66
2022/11/04 08:36:05;;;;;;;26.48;13.55;;;10.00;99.90;;;;;;4952866;28;20100;-66
2022/11/04 08:38:31;;;;;;;29.52;15.50;;;10.10;99.90;;;;;;4942228;28;20031;-66
2022/11/04 08:40:58;;;;;;;30.38;15.73;;;10.10;99.90;;;;;;4949326;29;20105;-66
2022/11/04 08:43:24;;;;;;;31.50;14.57;;;10.20;99.90;;;;;;4952648;28;20701;-66
2022/11/04 08:45:51;;;;;;;32.92;15.35;;;10.20;99.90;;;;;;4952797;29;20039;-66
2022/11/04 08:48:17;;;;;;;30.58;15.90;;;10.30;99.90;;;;;;4943427;29;20471;-66
2022/11/04 08:50:43;;;;;;;31.98;14.95;;;10.40;99.90;;;;;;4943461;28;20114;-66
2022/11/04 08:53:08;;;;;;;29.05;15.55;;;10.40;99.90;;;;;;4953205;29;20118;-66
2022/11/04 08:55:34;;;;;;;33.05;15.93;;;10.50;99.90;;;;;;4936077;29;20119;-67
2022/11/04 08:58:01;;;;;;;32.28;16.27;;;10.40;99.90;;;;;;4937676;28;20047;-66
2022/11/04 09:00:27;;;;;;;29.45;16.23;;;10.40;99.90;;;;;;4951413;28;20486;-66
2022/11/04 09:02:54;;;;;;;31.65;16.17;;;10.30;99.90;;;;;;4954395;28;20046;-66
2022/11/04 09:05:20;;;;;;;29.63;16.25;;;10.20;99.90;;;;;;4951806;29;20047;-66
2022/11/04 09:07:47;;;;;;;32.35;16.00;;;10.10;99.90;;;;;;4942552;28;20142;-66
2022/11/04 09:10:13;;;;;;;34.72;17.50;;;10.10;99.90;;;;;;4938540;28;20491;-66
2022/11/04 09:12:40;;;;;;;32.67;16.85;;;10.10;99.90;;;;;;4936589;29;20053;-66
2022/11/04 09:15:06;;;;;;;34.97;16.85;;;10.00;99.90;;;;;;4920726;28;20474;-65
2022/11/04 09:17:32;;;;;;;37.70;18.10;;;10.00;99.90;;;;;;4937231;29;20043;-66
2022/11/04 09:19:58;;;;;;;36.15;18.63;;;10.10;99.90;;;;;;4937533;29;20043;-66
2022/11/04 09:22:23;;;;;;;39.25;18.83;;;10.10;99.90;;;;;;4936077;28;20047;-66
2022/11/04 09:24:49;;;;;;;38.17;18.50;;;10.10;99.90;;;;;;4938989;29;20042;-66
2022/11/04 09:27:14;;;;;;;43.72;19.33;;;10.20;99.90;;;;;;4932219;28;20039;-66
2022/11/04 09:29:40;;;;;;;39.75;19.98;;;10.30;99.90;;;;;;4937044;29;20573;-66
2022/11/04 09:32:07;;;;;;;48.85;20.30;;;10.50;99.90;;;;;;4937760;28;20050;-66
2022/11/04 09:34:33;;;;;;;40.40;20.10;;;10.60;99.90;;;;;;4939353;28;20043;-66
2022/11/04 09:36:58;;;;;;;43.85;19.77;;;10.70;99.90;;;;;;4934616;28;20043;-66
2022/11/04 09:39:25;;;;;;;41.15;19.20;;;10.80;99.90;;;;;;4935394;28;20579;-66
2022/11/04 09:42:39;;;;;;;40.20;20.10;;;10.90;99.90;;;;;;4938080;28;20047;-67
2022/11/04 09:45:17;;;;;;;39.40;19.88;;;11.00;99.90;;;;;;4922544;29;20070;-66
2022/11/04 09:47:46;;;;;;;41.65;19.50;;;11.00;99.90;;;;;;4935286;28;20039;-67
2022/11/04 09:50:25;;;;;;;36.70;19.70;;;11.10;99.90;;;;;;4938437;29;20053;-67
2022/11/04 09:53:16;;;;;;;38.53;19.05;;;11.10;99.90;;;;;;4936043;28;20149;-66
2022/11/04 09:56:12;;;;;;;39.85;19.27;;;11.10;99.90;;;;;;4927634;28;20151;-66
2022/11/04 09:58:38;;;;;;;34.85;19.13;;;11.10;99.90;;;;;;4933809;28;20051;-66
2022/11/04 10:01:36;;;;;;;38.20;20.52;;;11.10;99.90;;;;;;4935903;28;20039;-66
2022/11/04 10:04:38;;;;;;;38.45;20.55;;;11.10;99.90;;;;;;4938848;29;20070;-66
2022/11/04 10:07:15;;;;;;;35.05;19.13;;;11.10;99.90;;;;;;4934439;28;20082;-66
2022/11/04 10:09:55;;;;;;;35.75;18.75;;;11.10;99.90;;;;;;4935707;29;20043;-64
2022/11/04 10:12:44;;;;;;;33.63;17.90;;;11.00;99.90;;;;;;4936965;28;20050;-67
2022/11/04 10:15:35;;;;;;;38.70;18.23;;;11.00;99.90;;;;;;4935871;29;20051;-69
2022/11/04 10:18:38;;;;;;;32.85;17.98;;;10.90;99.90;;;;;;4936743;29;20891;-69
2022/11/04 10:21:20;;;;;;;37.67;20.45;;;10.90;99.90;;;;;;4933145;28;20086;-65
2022/11/04 10:24:16;;;;;;;44.88;21.20;;;11.00;99.90;;;;;;4941620;29;20035;-66
2022/11/04 10:26:58;;;;;;;42.05;20.88;;;11.20;99.90;;;;;;4938066;29;20055;-66
2022/11/04 10:29:36;;;;;;;37.05;20.13;;;11.40;99.90;;;;;;4925075;28;20058;-66
2022/11/04 10:32:34;;;;;;;36.58;20.05;;;11.50;99.90;;;;;;4947542;28;20074;-64
2022/11/04 10:35:21;;;;;;;36.45;19.27;;;11.50;99.90;;;;;;4930252;29;20081;-66
2022/11/04 10:37:50;;;;;;;44.40;21.00;;;11.60;99.90;;;;;;4932925;28;20043;-65
2022/11/04 10:40:31;;;;;;;36.13;18.65;;;11.50;99.90;;;;;;4937681;29;20047;-65
2022/11/04 10:43:01;;;;;;;37.50;19.25;;;11.50;99.90;;;;;;4936949;28;20502;-65
2022/11/04 10:45:50;;;;;;;36.78;20.35;;;11.50;99.90;;;;;;4933772;28;20211;-65
2022/11/04 10:48:26;;;;;;;36.40;19.42;;;11.60;99.90;;;;;;4935130;29;20533;-65
2022/11/04 10:50:57;;;;;;;32.88;19.25;;;11.70;99.90;;;;;;4936321;29;20046;-65
2022/11/04 10:53:28;;;;;;;31.27;18.63;;;11.60;99.90;;;;;;4937076;28;20043;-65
2022/11/04 10:55:58;;;;;;;31.92;18.52;;;11.50;99.90;;;;;;4933520;28;20047;-66
2022/11/04 10:58:28;;;;;;;32.58;18.25;;;11.50;99.90;;;;;;4935047;29;20074;-66
2022/11/04 11:00:56;;;;;;;33.72;19.80;;;11.50;99.90;;;;;;4924719;28;20098;-66
2022/11/04 11:03:22;;;;;;;32.53;18.88;;;11.60;99.90;;;;;;4932668;28;20043;-66
2022/11/04 11:05:48;;;;;;;34.03;20.23;;;11.70;99.90;;;;;;4931794;28;20077;-66
2022/11/04 11:08:28;;;;;;;32.58;17.98;;;11.80;99.90;;;;;;4933276;29;20047;-66
2022/11/04 11:10:55;;;;;;;33.17;18.38;;;11.90;99.90;;;;;;4936879;28;20125;-66
2022/11/04 11:13:35;;;;;;;30.15;18.85;;;11.80;99.90;;;;;;4933417;28;20051;-66
2022/11/04 11:16:19;;;;;;;30.70;17.55;;;11.80;99.90;;;;;;4937378;29;20416;-66
2022/11/04 11:19:10;;;;;;;32.25;17.83;;;11.80;99.90;;;;;;4935767;29;20052;-66
2022/11/04 11:21:47;;;;;;;29.83;17.02;;;11.80;99.90;;;;;;4936442;28;20043;-66
2022/11/04 11:24:22;;;;;;;26.73;14.98;;;12.00;99.90;;;;;;4930791;28;20039;-66
2022/11/04 11:26:59;;;;;;;25.95;15.32;;;12.10;99.90;;;;;;4936423;29;20787;-66
2022/11/04 11:29:38;;;;;;;26.65;15.38;;;12.00;99.90;;;;;;4933391;28;20047;-66
2022/11/04 11:32:14;;;;;;;27.27;15.57;;;12.00;99.90;;;;;;4936476;28;20739;-66
2022/11/04 11:34:44;;;;;;;26.67;15.43;;;12.00;99.90;;;;;;4937579;29;20042;-66
2022/11/04 11:37:21;;;;;;;26.38;16.00;;;12.20;99.90;;;;;;4933157;28;20747;-66
2022/11/04 11:39:47;;;;;;;25.80;15.25;;;12.20;99.90;;;;;;4948607;28;20035;-66
2022/11/04 11:42:18;;;;;;;25.35;15.48;;;12.20;99.90;;;;;;4952540;28;20047;-66
2022/11/04 11:44:53;;;;;;;24.10;16.10;;;12.10;99.90;;;;;;4947043;28;20043;-66
2022/11/04 11:47:30;;;;;;;23.85;15.10;;;12.10;99.90;;;;;;4925055;28;20045;-66
2022/11/04 11:50:19;;;;;;;26.75;17.08;;;12.10;99.90;;;;;;4923954;28;20044;-65
2022/11/04 11:52:46;;;;;;;31.95;17.05;;;12.00;99.90;;;;;;4928661;28;20507;-68
2022/11/04 11:55:34;;;;;;;30.10;17.17;;;12.00;99.90;;;;;;4936380;29;20047;-67
2022/11/04 11:58:33;;;;;;;29.38;16.95;;;12.10;99.90;;;;;;4949958;29;20086;-68
2022/11/04 12:01:26;;;;;;;26.75;16.50;;;12.20;99.90;;;;;;4952258;28;20071;-68
2022/11/04 12:03:52;;;;;;;28.55;15.40;;;12.30;99.90;;;;;;4955357;28;20545;-68
2022/11/04 12:06:49;;;;;;;27.33;15.80;;;12.40;99.90;;;;;;4954432;29;20118;-68
2022/11/04 12:09:39;;;;;;;27.17;16.08;;;12.40;99.90;;;;;;4941840;28;20039;-68
2022/11/04 12:12:46;;;;;;;22.73;14.57;;;12.40;99.90;;;;;;4952096;28;20043;-68
2022/11/04 12:15:32;;;;;;;24.98;13.85;;;12.30;99.90;;;;;;4936034;28;20043;-68
2022/11/04 12:18:16;;;;;;;24.88;15.27;;;12.30;99.90;;;;;;4955759;29;20039;-68
2022/11/04 12:21:02;;;;;;;25.05;14.90;;;12.50;99.90;;;;;;4936053;29;20402;-68
2022/11/04 12:23:34;;;;;;;24.55;14.55;;;12.70;99.90;;;;;;4947443;28;20046;-68
2022/11/04 12:26:38;;;;;;;25.45;16.35;;;12.90;99.90;;;;;;4944031;28;20474;-68
2022/11/04 12:29:31;;;;;;;21.30;12.80;;;13.10;99.90;;;;;;4945805;29;20044;-68
2022/11/04 12:31:59;;;;;;;27.10;14.88;;;13.10;99.90;;;;;;4954654;28;20482;-68
2022/11/04 12:34:47;;;;;;;19.80;13.93;;;13.20;99.90;;;;;;4954614;29;20045;-68
2022/11/04 12:37:24;;;;;;;21.85;14.20;;;13.30;99.90;;;;;;4942917;28;20035;-68
2022/11/04 12:40:02;;;;;;;24.60;14.35;;;13.30;99.90;;;;;;4954954;29;20188;-67
2022/11/04 12:42:37;;;;;;;24.10;14.23;;;13.30;99.90;;;;;;4935326;28;20047;-67
2022/11/04 12:45:32;;;;;;;22.95;13.93;;;13.20;99.90;;;;;;4942818;29;20557;-66
2022/11/04 12:48:09;;;;;;;25.13;13.77;;;13.30;99.90;;;;;;4941049;29;20058;-66
2022/11/04 12:50:55;;;;;;;20.13;13.30;;;13.30;99.90;;;;;;4953596;28;20042;-69
2022/11/04 12:53:48;;;;;;;21.58;13.15;;;13.40;99.90;;;;;;4943314;28;20513;-67
2022/11/04 12:56:18;;;;;;;23.33;12.77;;;13.40;99.90;;;;;;4950145;28;20050;-67
2022/11/04 12:59:04;;;;;;;20.95;13.43;;;13.30;99.90;;;;;;4951955;29;20046;-66
2022/11/04 13:01:38;;;;;;;17.35;11.50;;;13.30;99.90;;;;;;4950307;29;20064;-66
2022/11/04 13:04:08;;;;;;;18.00;10.50;;;13.20;99.90;;;;;;4952160;29;20047;-68
2022/11/04 13:06:39;;;;;;;17.90;10.73;;;13.20;99.90;;;;;;4942179;28;20130;-67
2022/11/04 13:09:09;;;;;;;19.73;11.98;;;13.20;99.90;;;;;;4953957;29;20130;-66
2022/11/04 13:11:54;;;;;;;5.53;2.78;;;13.30;99.90;;;;;;4953393;28;20094;-67
2022/11/04 13:14:28;;;;;;;4.10;0.80;;;13.00;99.90;;;;;;4934870;28;20067;-67
2022/11/04 13:17:00;;;;;;;4.28;1.13;;;12.30;99.90;;;;;;4945710;28;20074;-65
2022/11/04 13:19:34;;;;;;;7.43;1.08;;;11.50;99.90;;;;;;4949803;29;20135;-67
2022/11/04 13:22:07;;;;;;;3.90;1.00;;;10.90;99.90;;;;;;4954247;28;20117;-66
2022/11/04 13:24:39;;;;;;;3.38;1.33;;;10.60;99.90;;;;;;4924116;29;20047;-65
2022/11/04 13:27:23;;;;;;;;;;;10.30;99.90;;;;;;4932999;29;20047;-66
2022/11/04 13:29:55;;;;;;;5.55;1.50;;;10.20;99.90;;;;;;4951510;29;19918;-65
2022/11/04 13:32:43;;;;;;;4.45;1.30;;;10.10;99.90;;;;;;4948007;28;20147;-67
2022/11/04 13:35:24;;;;;;;2.97;1.13;;;10.10;99.90;;;;;;4948899;29;20474;-65
2022/11/04 13:38:04;;;;;;;3.65;1.42;;;10.10;99.90;;;;;;4951889;29;20050;-65
2022/11/04 13:40:51;;;;;;;3.67;1.40;;;10.10;99.90;;;;;;4948498;28;20043;-67